Time;durP1;ratioP1;P1;durP2;ratioP2;P2;SDS_P1;SDS_P2;PMS_P1;PMS_P2;Temp;Humidity;BMP_temperature;BMP_pressure;BME280_temperature;BME280_humidity;BME280_pressure;Samples;Min_cycle;Max_cycle;Signal;HPM_P1;HPM_P2
2022/02/13 00:04:00;;;;;;;0.20;0.00;;;10.20;99.90;;;;;;25086670;23;20173;-68
2022/02/13 00:14:04;;;;;;;0.20;0.00;;;10.20;99.90;;;;;;25085088;23;20209;-67
2022/02/13 00:24:10;;;;;;;0.20;0.10;;;10.20;99.90;;;;;;25086621;23;20180;-65
2022/02/13 00:34:13;;;;;;;0.20;0.10;;;10.20;99.90;;;;;;25086235;23;20193;-71
2022/02/13 00:44:19;;;;;;;0.20;0.00;;;10.20;99.90;;;;;;25084595;23;20213;-72
2022/02/13 00:54:23;;;;;;;0.20;0.00;;;10.30;99.90;;;;;;25084722;23;20193;-72
2022/02/13 01:04:28;;;;;;;0.20;0.10;;;10.30;99.90;;;;;;25086016;23;20177;-72
2022/02/13 01:14:32;;;;;;;0.20;0.07;;;10.30;99.90;;;;;;25083109;23;20197;-72
2022/02/13 01:24:37;;;;;;;0.20;0.10;;;10.20;99.90;;;;;;25084521;23;20173;-72
2022/02/13 01:34:41;;;;;;;0.20;0.10;;;10.30;99.90;;;;;;25083527;23;20204;-66
2022/02/13 01:44:47;;;;;;;0.20;0.00;;;10.20;99.90;;;;;;25084018;23;20201;-64
2022/02/13 01:54:50;;;;;;;0.20;0.00;;;10.30;99.90;;;;;;25083393;23;20190;-65
2022/02/13 02:04:57;;;;;;;0.20;0.00;;;10.30;99.90;;;;;;25084298;23;20186;-71
2022/02/13 02:15:01;;;;;;;0.20;0.00;;;10.40;99.90;;;;;;25083688;23;20196;-70
2022/02/13 02:25:07;;;;;;;0.20;0.00;;;10.60;99.90;;;;;;25084869;23;20197;-71
2022/02/13 02:35:11;;;;;;;0.20;0.10;;;10.60;99.90;;;;;;25088095;23;20247;-72
2022/02/13 02:45:16;;;;;;;0.20;0.00;;;10.70;99.90;;;;;;25087322;23;20209;-72
2022/02/13 02:55:20;;;;;;;0.20;0.00;;;10.70;99.90;;;;;;25088415;23;20185;-71
2022/02/13 03:05:25;;;;;;;0.20;0.00;;;10.60;99.90;;;;;;25089059;23;20237;-75
2022/02/13 03:15:29;;;;;;;0.20;0.10;;;10.60;99.90;;;;;;25088081;23;20198;-73
2022/02/13 03:25:34;;;;;;;0.20;0.00;;;10.70;99.90;;;;;;25086665;23;20181;-70
2022/02/13 03:35:39;;;;;;;0.20;0.10;;;10.70;99.90;;;;;;25085569;23;20197;-71
2022/02/13 03:45:44;;;;;;;0.20;0.10;;;10.60;99.90;;;;;;25083671;23;20205;-72
2022/02/13 03:55:48;;;;;;;0.20;0.00;;;10.60;99.90;;;;;;25086442;23;20189;-72
2022/02/13 04:05:55;;;;;;;0.20;0.00;;;10.60;99.90;;;;;;25086977;23;20174;-71
2022/02/13 04:15:59;;;;;;;0.20;0.10;;;10.80;99.90;;;;;;25086571;23;20200;-70
2022/02/13 04:26:04;;;;;;;0.20;0.10;;;10.80;99.90;;;;;;25085397;23;20177;-71
2022/02/13 04:36:08;;;;;;;0.20;0.00;;;10.80;99.90;;;;;;25084714;23;20194;-72
2022/02/13 04:46:13;;;;;;;0.20;0.10;;;10.60;99.90;;;;;;25084566;23;20201;-71
2022/02/13 04:56:17;;;;;;;0.20;0.10;;;10.60;99.90;;;;;;25081554;23;20205;-73
2022/02/13 05:06:23;;;;;;;0.20;0.00;;;10.70;99.90;;;;;;25083943;23;20169;-73
2022/02/13 05:16:26;;;;;;;0.20;0.00;;;10.50;99.90;;;;;;25082284;23;20200;-72
2022/02/13 05:26:32;;;;;;;0.20;0.10;;;10.30;99.90;;;;;;25082393;23;20174;-72
2022/02/13 05:36:35;;;;;;;0.20;0.10;;;10.50;99.90;;;;;;25082755;23;20248;-71
2022/02/13 05:46:41;;;;;;;0.20;0.00;;;10.40;99.90;;;;;;25082480;23;20224;-74
2022/02/13 05:56:44;;;;;;;0.20;0.03;;;10.40;99.90;;;;;;25083510;23;20186;-73
2022/02/13 06:06:51;;;;;;;0.20;0.10;;;10.40;99.90;;;;;;25089919;23;20174;-72
2022/02/13 06:16:55;;;;;;;0.20;0.00;;;10.60;99.90;;;;;;25090573;23;20185;-72
2022/02/13 06:27:01;;;;;;;0.20;0.00;;;10.60;99.90;;;;;;25088692;23;20169;-71
2022/02/13 06:37:05;;;;;;;0.20;0.10;;;10.60;99.90;;;;;;25089325;23;20196;-71
2022/02/13 06:47:10;;;;;;;0.20;0.10;;;10.50;99.90;;;;;;25087789;23;20201;-73
2022/02/13 06:57:14;;;;;;;0.20;0.00;;;10.60;99.90;;;;;;25087265;23;20588;-73
2022/02/13 07:07:19;;;;;;;0.20;0.00;;;10.70;99.90;;;;;;25087678;23;20184;-74
2022/02/13 07:17:24;;;;;;;0.20;0.03;;;10.80;99.90;;;;;;25086124;23;20204;-71
2022/02/13 07:27:30;;;;;;;0.20;0.10;;;11.10;99.90;;;;;;25087369;23;20181;-71
2022/02/13 07:37:34;;;;;;;0.20;0.10;;;11.10;99.90;;;;;;25087334;23;20205;-71
2022/02/13 07:47:39;;;;;;;0.20;0.00;;;11.20;99.90;;;;;;25084824;23;20217;-71
2022/02/13 07:57:43;;;;;;;0.20;0.10;;;11.40;99.90;;;;;;25085397;23;20189;-72
2022/02/13 08:07:51;;;;;;;0.20;0.10;;;11.60;99.90;;;;;;25083448;23;20157;-74
2022/02/13 08:17:55;;;;;;;0.20;0.10;;;11.90;99.90;;;;;;25084362;23;20193;-74
2022/02/13 08:28:00;;;;;;;0.20;0.00;;;11.90;99.90;;;;;;25080462;23;20640;-73
2022/02/13 08:38:05;;;;;;;0.20;0.10;;;12.10;99.90;;;;;;25084150;23;20200;-73
2022/02/13 08:48:10;;;;;;;0.20;0.00;;;12.20;99.90;;;;;;25084442;23;20205;-73
2022/02/13 08:58:14;;;;;;;0.20;0.10;;;12.40;99.90;;;;;;25084451;23;20200;-76
2022/02/13 09:08:19;;;;;;;0.20;0.10;;;12.40;99.90;;;;;;25130325;23;20212;-73
2022/02/13 09:18:23;;;;;;;0.20;0.10;;;12.60;99.90;;;;;;25201209;23;20200;-74
2022/02/13 09:28:28;;;;;;;0.20;0.10;;;12.70;99.90;;;;;;25200634;23;20252;-73
2022/02/13 09:38:32;;;;;;;0.20;0.00;;;12.80;99.90;;;;;;25204476;23;20200;-74
2022/02/13 09:48:38;;;;;;;0.20;0.10;;;12.90;99.90;;;;;;25207912;23;20201;-74
2022/02/13 09:58:45;;;;;;;0.20;0.10;;;13.00;99.90;;;;;;25206171;23;20236;-76
2022/02/13 10:08:51;;;;;;;0.20;0.10;;;13.30;99.90;;;;;;25207253;23;20184;-75
2022/02/13 10:18:57;;;;;;;0.20;0.00;;;13.80;99.90;;;;;;25206829;23;20172;-75
2022/02/13 10:29:03;;;;;;;0.20;0.00;;;14.60;99.90;;;;;;25201999;23;20179;-74
2022/02/13 10:39:18;;;;;;;0.20;0.00;;;14.60;99.90;;;;;;25202831;23;20172;-72
2022/02/13 10:49:23;;;;;;;3.40;3.20;;;14.60;99.90;;;;;;25201662;23;20200;-72
2022/02/13 10:59:28;;;;;;;0.20;0.10;;;14.50;99.90;;;;;;25202251;23;20168;-76
2022/02/13 11:09:39;;;;;;;0.20;0.00;;;14.60;99.90;;;;;;25201197;23;20208;-77
2022/02/13 11:19:44;;;;;;;0.20;0.10;;;14.50;99.90;;;;;;25176992;23;20169;-74
2022/02/13 11:29:55;;;;;;;0.20;0.10;;;15.30;99.90;;;;;;25199372;23;20233;-80
2022/02/13 11:39:59;;;;;;;0.20;0.00;;;14.70;99.90;;;;;;25199310;23;20188;-73
2022/02/13 11:50:28;;;;;;;0.20;0.10;;;14.60;99.90;;;;;;25198847;23;20201;-72
2022/02/13 12:00:40;;;;;;;0.20;0.00;;;14.10;99.90;;;;;;25193599;23;20180;-72
2022/02/13 12:10:46;;;;;;;0.20;0.10;;;14.70;99.90;;;;;;25197481;23;20188;-76
2022/02/13 12:20:56;;;;;;;0.20;0.00;;;14.70;99.90;;;;;;25195440;23;20176;-72
2022/02/13 12:31:03;;;;;;;0.20;0.10;;;15.60;99.90;;;;;;25199297;23;20215;-73
2022/02/13 12:41:07;;;;;;;0.20;0.00;;;16.30;99.90;;;;;;25200238;23;20256;-73
2022/02/13 12:51:12;;;;;;;1.57;1.47;;;17.80;99.90;;;;;;25198953;23;20184;-77
2022/02/13 13:01:29;;;;;;;0.20;0.10;;;16.40;99.90;;;;;;25196975;23;20196;-76
2022/02/13 13:11:34;;;;;;;0.20;0.00;;;18.20;99.90;;;;;;25193807;23;20203;-74
2022/02/13 13:21:44;;;;;;;0.20;0.10;;;19.10;99.90;;;;;;25196761;23;20203;-76
2022/02/13 13:31:59;;;;;;;0.20;0.00;;;18.90;99.90;;;;;;25198265;23;20252;-73
2022/02/13 13:42:13;;;;;;;0.20;0.00;;;18.10;99.90;;;;;;25198549;23;20193;-67
2022/02/13 13:52:18;;;;;;;0.20;0.00;;;17.80;99.90;;;;;;25199985;23;20192;-68
2022/02/13 14:02:23;;;;;;;0.20;0.10;;;19.60;99.90;;;;;;25201262;23;20169;-75
2022/02/13 14:12:28;;;;;;;0.20;0.07;;;16.10;99.90;;;;;;25201808;23;20204;-74
2022/02/13 14:22:32;;;;;;;0.20;0.10;;;15.40;99.90;;;;;;25201469;23;20169;-67
2022/02/13 14:32:37;;;;;;;0.20;0.10;;;15.90;99.90;;;;;;25197485;23;20203;-67
2022/02/13 14:42:41;;;;;;;0.20;0.20;;;15.00;99.90;;;;;;25200316;23;20197;-69
2022/02/13 14:52:47;;;;;;;0.20;0.10;;;14.80;99.90;;;;;;25201151;23;20185;-68
2022/02/13 15:02:50;;;;;;;0.20;0.10;;;15.00;99.90;;;;;;25202243;23;20179;-67
2022/02/13 15:12:56;;;;;;;0.20;0.00;;;14.70;99.90;;;;;;25201392;23;20193;-66
2022/02/13 15:23:19;;;;;;;0.20;0.00;;;14.40;99.90;;;;;;25201685;23;20173;-67
2022/02/13 15:33:25;;;;;;;0.20;0.00;;;14.30;99.90;;;;;;25197380;23;20237;-68
2022/02/13 15:43:28;;;;;;;0.20;0.00;;;14.20;99.90;;;;;;25199742;23;20200;-67
2022/02/13 15:53:34;;;;;;;0.20;0.00;;;14.10;99.90;;;;;;25193726;23;20193;-67
2022/02/13 16:03:38;;;;;;;0.20;0.00;;;13.90;99.90;;;;;;25200108;23;20182;-68
2022/02/13 16:13:44;;;;;;;0.20;0.10;;;13.60;99.90;;;;;;25200143;23;20195;-66
2022/02/13 16:24:05;;;;;;;0.20;0.00;;;13.50;99.90;;;;;;25201517;23;20172;-65
2022/02/13 16:34:11;;;;;;;0.20;0.00;;;13.50;99.90;;;;;;25197338;23;20189;-66
2022/02/13 16:44:16;;;;;;;0.20;0.00;;;13.50;99.90;;;;;;25192802;23;20201;-66
2022/02/13 16:54:22;;;;;;;0.20;0.10;;;13.50;99.90;;;;;;25198785;23;20211;-65
2022/02/13 17:04:26;;;;;;;0.20;0.00;;;13.50;99.90;;;;;;25174027;23;20166;-66
2022/02/13 17:14:32;;;;;;;0.20;0.10;;;13.50;99.90;;;;;;25197365;23;20208;-66
2022/02/13 17:24:35;;;;;;;0.20;0.00;;;13.30;99.90;;;;;;25197604;23;20173;-66
2022/02/13 17:34:41;;;;;;;0.20;0.10;;;13.40;99.90;;;;;;25197318;23;20191;-66
2022/02/13 17:44:45;;;;;;;0.20;0.00;;;13.30;99.90;;;;;;25197208;23;20193;-66
2022/02/13 17:54:50;;;;;;;0.20;0.10;;;13.30;99.90;;;;;;25194229;23;20279;-65
2022/02/13 18:04:54;;;;;;;0.20;0.00;;;13.30;99.90;;;;;;25204421;23;20168;-66
2022/02/13 18:14:59;;;;;;;0.20;0.10;;;13.30;99.90;;;;;;25205411;23;20185;-65
2022/02/13 18:25:09;;;;;;;0.20;0.00;;;13.40;99.90;;;;;;25180155;23;20172;-66
2022/02/13 18:35:14;;;;;;;0.20;0.00;;;13.40;99.90;;;;;;25204769;23;20185;-66
2022/02/13 18:45:18;;;;;;;0.20;0.00;;;13.40;99.90;;;;;;25203864;23;20216;-67
2022/02/13 18:55:23;;;;;;;0.20;0.00;;;13.40;99.90;;;;;;25202418;23;20184;-72
2022/02/13 19:05:27;;;;;;;0.20;0.00;;;13.40;99.90;;;;;;25203876;23;20189;-72
2022/02/13 19:15:37;;;;;;;0.20;0.00;;;13.40;99.90;;;;;;25203184;23;20553;-75
2022/02/13 19:25:41;;;;;;;0.20;0.00;;;13.40;99.90;;;;;;25201563;23;20203;-77
2022/02/13 19:35:47;;;;;;;0.20;0.00;;;13.50;99.90;;;;;;25201812;23;20197;-73
2022/02/13 19:45:50;;;;;;;9.07;4.70;;;13.50;99.90;;;;;;25200484;23;20212;-73
2022/02/13 19:55:56;;;;;;;0.20;0.00;;;13.40;99.90;;;;;;25196865;23;20220;-73
2022/02/13 20:05:59;;;;;;;0.20;0.00;;;13.40;99.90;;;;;;25202598;23;20169;-73
2022/02/13 20:16:07;;;;;;;0.20;0.10;;;13.40;99.90;;;;;;25201250;23;20189;-72
2022/02/13 20:26:10;;;;;;;0.20;0.10;;;13.40;99.90;;;;;;25200187;23;20169;-74
2022/02/13 20:36:16;;;;;;;0.20;0.10;;;13.40;99.90;;;;;;25200824;23;20188;-71
2022/02/13 20:46:20;;;;;;;1.13;1.13;;;13.40;99.90;;;;;;25176546;23;20244;-72
2022/02/13 20:56:26;;;;;;;0.20;0.07;;;13.40;99.90;;;;;;25201387;23;20188;-73
2022/02/13 21:06:31;;;;;;;0.20;0.00;;;13.40;99.90;;;;;;25196241;23;20181;-74
2022/02/13 21:16:36;;;;;;;0.20;0.10;;;13.30;99.90;;;;;;25146875;23;20212;-74
2022/02/13 21:26:41;;;;;;;0.20;0.10;;;13.40;99.90;;;;;;25201731;23;20172;-72
2022/02/13 21:36:51;;;;;;;0.20;0.00;;;13.30;99.90;;;;;;25211358;23;20622;-74
2022/02/13 21:46:54;;;;;;;0.20;0.10;;;13.30;99.90;;;;;;25215576;23;20212;-74
2022/02/13 21:56:59;;;;;;;0.20;0.00;;;13.30;99.90;;;;;;25218492;23;20185;-75
2022/02/13 22:07:03;;;;;;;0.20;0.00;;;13.30;99.90;;;;;;25211626;23;20184;-72
2022/02/13 22:17:08;;;;;;;0.20;0.00;;;13.30;99.90;;;;;;25213417;23;20185;-72
2022/02/13 22:27:13;;;;;;;0.20;0.10;;;13.30;99.90;;;;;;25212657;23;20169;-73
2022/02/13 22:37:19;;;;;;;0.20;0.00;;;13.30;99.90;;;;;;25210518;23;20208;-72
2022/02/13 22:47:22;;;;;;;0.20;0.10;;;13.40;99.90;;;;;;25211479;23;20221;-74
2022/02/13 22:57:28;;;;;;;0.20;0.10;;;13.40;99.90;;;;;;25212501;23;20201;-74
2022/02/13 23:17:59;;;;;;;0.20;0.00;;;13.40;99.90;;;;;;25211810;23;20204;-74
2022/02/13 23:28:04;;;;;;;0.20;0.00;;;13.40;99.90;;;;;;25212286;23;20180;-73
2022/02/13 23:38:09;;;;;;;0.20;0.00;;;13.40;99.90;;;;;;25211494;23;20193;-67
2022/02/13 23:48:13;;;;;;;0.20;0.00;;;13.40;99.90;;;;;;25210639;23;20253;-66
